Time;durP1;ratioP1;P1;durP2;ratioP2;P2;SDS_P1;SDS_P2;PMS_P1;PMS_P2;Temp;Humidity;BMP_temperature;BMP_pressure;BME280_temperature;BME280_humidity;BME280_pressure;Samples;Min_cycle;Max_cycle;Signal;HPM_P1;HPM_P2
2023/06/02 00:00:39;;;;;;;4.50;3.40;;;13.10;99.90;;;;;;4882098;29;20283;-59
2023/06/02 00:03:10;;;;;;;4.57;3.35;;;13.00;99.90;;;;;;4881798;29;20189;-59
2023/06/02 00:05:38;;;;;;;4.82;3.30;;;13.10;99.90;;;;;;4882074;29;20531;-59
2023/06/02 00:08:04;;;;;;;4.63;3.53;;;13.10;99.90;;;;;;4881837;29;20640;-59
2023/06/02 00:10:30;;;;;;;5.53;3.33;;;13.10;99.90;;;;;;4881812;29;20707;-59
2023/06/02 00:12:55;;;;;;;4.75;3.20;;;13.30;99.90;;;;;;4881795;29;20225;-59
2023/06/02 00:15:21;;;;;;;5.05;3.15;;;13.10;99.90;;;;;;4881889;29;20186;-59
2023/06/02 00:17:46;;;;;;;4.57;3.00;;;13.00;99.90;;;;;;4881772;29;20240;-60
2023/06/02 00:20:12;;;;;;;4.03;2.92;;;13.10;99.90;;;;;;4881638;29;20177;-59
2023/06/02 00:22:38;;;;;;;6.05;3.08;;;13.20;99.90;;;;;;4881641;29;20197;-59
2023/06/02 00:25:05;;;;;;;4.68;3.58;;;13.20;99.90;;;;;;4881503;29;20505;-59
2023/06/02 00:27:30;;;;;;;5.78;3.13;;;13.10;99.90;;;;;;4881723;29;20178;-59
2023/06/02 00:29:56;;;;;;;4.93;3.17;;;13.10;99.90;;;;;;4880434;29;20178;-59
2023/06/02 00:32:22;;;;;;;7.18;3.80;;;13.10;99.90;;;;;;4881251;29;20224;-59
2023/06/02 00:34:48;;;;;;;6.55;3.60;;;13.10;99.90;;;;;;4881309;29;20185;-59
2023/06/02 00:37:14;;;;;;;6.32;3.20;;;13.10;99.90;;;;;;4881414;29;20210;-59
2023/06/02 00:39:39;;;;;;;6.25;3.55;;;13.10;99.90;;;;;;4881229;29;20264;-59
2023/06/02 00:42:05;;;;;;;4.53;3.45;;;13.10;99.90;;;;;;4881438;29;20185;-59
2023/06/02 00:44:31;;;;;;;10.20;3.85;;;13.00;99.90;;;;;;4881394;29;20180;-59
2023/06/02 00:46:57;;;;;;;5.82;3.97;;;13.00;99.90;;;;;;4881237;29;20185;-59
2023/06/02 00:49:23;;;;;;;6.20;3.35;;;13.10;99.90;;;;;;4881141;29;20185;-59
2023/06/02 00:51:49;;;;;;;6.57;4.07;;;13.00;99.90;;;;;;4880885;29;20213;-59
2023/06/02 00:54:16;;;;;;;7.10;3.72;;;13.00;99.90;;;;;;4881101;29;20181;-59
2023/06/02 00:56:42;;;;;;;7.55;3.33;;;12.90;99.90;;;;;;4880938;29;20188;-59
2023/06/02 00:59:10;;;;;;;6.43;3.45;;;12.90;99.90;;;;;;4881103;29;20241;-59
2023/06/02 01:01:36;;;;;;;7.45;3.45;;;12.90;99.90;;;;;;4880985;29;20321;-59
2023/06/02 01:04:01;;;;;;;6.88;3.30;;;12.90;99.90;;;;;;4881051;29;20312;-59
2023/06/02 01:06:34;;;;;;;6.80;3.35;;;12.80;99.90;;;;;;4880852;29;20192;-59
2023/06/02 01:09:05;;;;;;;6.55;3.53;;;12.90;99.90;;;;;;4880656;29;20181;-59
2023/06/02 01:11:32;;;;;;;6.47;4.10;;;12.90;99.90;;;;;;4880888;29;20253;-59
2023/06/02 01:13:59;;;;;;;7.55;3.95;;;12.90;99.90;;;;;;4880827;29;20233;-59
2023/06/02 01:16:27;;;;;;;6.32;4.50;;;12.90;99.90;;;;;;4880712;29;20209;-59
2023/06/02 01:18:53;;;;;;;8.20;4.82;;;12.80;99.90;;;;;;4880608;29;20177;-59
2023/06/02 01:21:23;;;;;;;8.55;4.78;;;12.80;99.90;;;;;;4880383;29;20193;-59
2023/06/02 01:23:57;;;;;;;5.57;3.92;;;12.90;99.90;;;;;;4880726;29;20217;-59
2023/06/02 01:26:23;;;;;;;7.88;3.97;;;12.80;99.90;;;;;;4880857;29;20206;-59
2023/06/02 01:28:49;;;;;;;6.65;3.80;;;12.70;99.90;;;;;;4880731;29;20268;-59
2023/06/02 01:31:18;;;;;;;8.80;5.07;;;12.70;99.90;;;;;;4880361;29;20184;-59
2023/06/02 01:34:05;;;;;;;9.20;4.80;;;12.70;99.90;;;;;;4880464;29;20174;-59
2023/06/02 01:36:35;;;;;;;9.40;4.30;;;12.80;99.90;;;;;;4880524;29;20225;-59
2023/06/02 01:39:02;;;;;;;6.88;4.57;;;12.80;99.90;;;;;;4880357;29;20539;-59
2023/06/02 01:41:28;;;;;;;5.90;4.50;;;12.70;99.90;;;;;;4879724;29;20715;-59
2023/06/02 01:43:55;;;;;;;9.50;5.50;;;12.70;99.90;;;;;;4880179;29;20181;-59
2023/06/02 01:46:24;;;;;;;8.32;4.20;;;12.70;99.90;;;;;;4880087;29;20177;-59
2023/06/02 01:48:53;;;;;;;5.93;3.67;;;12.60;99.90;;;;;;4880055;29;20627;-59
2023/06/02 01:51:19;;;;;;;6.78;3.40;;;12.60;99.90;;;;;;4863494;29;20209;-59
2023/06/02 01:53:45;;;;;;;8.77;3.70;;;12.50;99.90;;;;;;4880191;29;20208;-59
2023/06/02 01:56:11;;;;;;;7.30;3.50;;;12.50;99.90;;;;;;4880042;29;20185;-59
2023/06/02 01:58:37;;;;;;;8.48;3.80;;;12.40;99.90;;;;;;4880058;29;20225;-59
2023/06/02 02:01:02;;;;;;;5.38;3.28;;;12.40;99.90;;;;;;4880395;29;20272;-59
2023/06/02 02:03:32;;;;;;;7.82;3.63;;;12.30;99.90;;;;;;4879775;29;20324;-59
2023/06/02 02:05:58;;;;;;;6.00;3.35;;;12.50;99.90;;;;;;4880156;29;20329;-60
2023/06/02 02:08:24;;;;;;;9.30;3.72;;;12.60;99.90;;;;;;4879879;29;20208;-59
2023/06/02 02:10:50;;;;;;;5.25;3.10;;;12.70;99.90;;;;;;4879805;29;20249;-59
2023/06/02 02:13:15;;;;;;;6.07;3.70;;;12.50;99.90;;;;;;4879615;29;20687;-59
2023/06/02 02:15:41;;;;;;;8.15;3.50;;;12.50;99.90;;;;;;4879760;29;20193;-59
2023/06/02 02:18:07;;;;;;;7.82;4.18;;;12.50;99.90;;;;;;4879876;29;20181;-59
2023/06/02 02:20:37;;;;;;;9.00;3.83;;;12.60;99.90;;;;;;4879675;29;20272;-59
2023/06/02 02:23:03;;;;;;;6.28;3.70;;;12.60;99.90;;;;;;4879768;29;20185;-59
2023/06/02 02:25:28;;;;;;;8.20;3.83;;;12.60;99.90;;;;;;4879621;29;20181;-59
2023/06/02 02:27:54;;;;;;;9.55;3.42;;;12.70;99.90;;;;;;4879617;29;20181;-59
2023/06/02 02:30:20;;;;;;;9.52;3.72;;;12.70;99.90;;;;;;4863375;29;20177;-59
2023/06/02 02:32:46;;;;;;;9.00;3.58;;;12.80;99.90;;;;;;4879881;29;20216;-59
2023/06/02 02:35:12;;;;;;;6.70;3.25;;;12.60;99.90;;;;;;4879662;29;20206;-59
2023/06/02 02:37:38;;;;;;;5.20;3.30;;;12.50;99.90;;;;;;4863121;29;20639;-59
2023/06/02 02:40:06;;;;;;;6.05;3.40;;;12.60;99.90;;;;;;4879765;29;20178;-59
2023/06/02 02:42:34;;;;;;;5.45;3.13;;;12.50;99.90;;;;;;4879681;29;20265;-59
2023/06/02 02:45:02;;;;;;;7.22;3.45;;;12.50;99.90;;;;;;4879321;29;20189;-59
2023/06/02 02:47:28;;;;;;;8.25;3.97;;;12.70;99.90;;;;;;4879577;29;20189;-59
2023/06/02 02:49:53;;;;;;;7.35;3.80;;;12.60;99.90;;;;;;4879342;29;20588;-59
2023/06/02 02:52:20;;;;;;;6.88;3.65;;;12.60;99.90;;;;;;4879809;29;20245;-59
2023/06/02 02:54:46;;;;;;;6.80;4.05;;;12.50;99.90;;;;;;4883107;29;20567;-59
2023/06/02 02:57:11;;;;;;;6.90;4.10;;;12.60;99.90;;;;;;4883209;29;20180;-59
2023/06/02 02:59:37;;;;;;;6.93;3.95;;;12.60;99.90;;;;;;4882997;29;20185;-59
2023/06/02 03:02:05;;;;;;;7.78;3.80;;;12.60;99.90;;;;;;4883215;29;20521;-59
2023/06/02 03:04:31;;;;;;;6.68;3.78;;;12.70;99.90;;;;;;4882912;29;20231;-59
2023/06/02 03:06:57;;;;;;;7.25;3.60;;;12.60;99.90;;;;;;4883036;29;20241;-59
2023/06/02 03:09:23;;;;;;;7.53;3.58;;;12.60;99.90;;;;;;4882983;29;20565;-59
2023/06/02 03:11:49;;;;;;;8.88;3.85;;;12.50;99.90;;;;;;4882843;29;20267;-59
2023/06/02 03:14:14;;;;;;;6.82;3.50;;;12.60;99.90;;;;;;4882746;29;20181;-59
2023/06/02 03:16:44;;;;;;;6.65;3.70;;;12.70;99.90;;;;;;4882965;29;20208;-59
2023/06/02 03:19:13;;;;;;;11.52;4.00;;;12.60;99.90;;;;;;4882864;29;20173;-59
2023/06/02 03:21:42;;;;;;;9.18;3.95;;;12.50;99.90;;;;;;4882753;29;20178;-59
2023/06/02 03:24:17;;;;;;;9.02;3.85;;;12.60;99.90;;;;;;4882665;29;20181;-59
2023/06/02 03:26:44;;;;;;;8.93;4.28;;;12.60;99.90;;;;;;4882515;29;20216;-58
2023/06/02 03:29:11;;;;;;;5.80;3.72;;;12.60;99.90;;;;;;4882707;29;20182;-59
2023/06/02 03:31:37;;;;;;;8.07;4.63;;;12.60;99.90;;;;;;4882395;29;20659;-59
2023/06/02 03:34:04;;;;;;;10.40;4.80;;;12.60;99.90;;;;;;4882553;29;20180;-58
2023/06/02 03:36:34;;;;;;;6.50;3.67;;;12.50;99.90;;;;;;4882601;29;20173;-58
2023/06/02 03:39:00;;;;;;;8.70;3.90;;;12.50;99.90;;;;;;4882362;29;20180;-59
2023/06/02 03:41:26;;;;;;;11.40;4.55;;;12.50;99.90;;;;;;4882251;29;20177;-58
2023/06/02 03:43:52;;;;;;;8.48;4.05;;;12.40;99.90;;;;;;4882469;29;20667;-59
2023/06/02 03:46:17;;;;;;;8.13;3.90;;;12.50;99.90;;;;;;4882401;29;20238;-59
2023/06/02 03:48:43;;;;;;;6.53;4.05;;;12.50;99.90;;;;;;4882272;29;20185;-59
2023/06/02 03:51:09;;;;;;;12.05;4.57;;;12.60;99.90;;;;;;4882364;29;20595;-59
2023/06/02 03:53:34;;;;;;;13.57;4.90;;;12.60;99.90;;;;;;4882159;29;20289;-59
2023/06/02 03:56:00;;;;;;;11.13;4.65;;;12.70;99.90;;;;;;4882042;29;20174;-59
2023/06/02 03:58:25;;;;;;;9.10;4.20;;;12.70;99.90;;;;;;4882264;29;20217;-59
2023/06/02 04:00:51;;;;;;;8.23;4.32;;;12.60;99.90;;;;;;4882167;29;20182;-59
2023/06/02 04:03:17;;;;;;;9.27;4.88;;;12.50;99.90;;;;;;4881592;29;20193;-59
2023/06/02 04:05:42;;;;;;;8.80;4.07;;;12.50;99.90;;;;;;4865441;29;20559;-59
2023/06/02 04:08:08;;;;;;;10.77;4.40;;;12.60;99.90;;;;;;4882072;29;20572;-58
2023/06/02 04:10:34;;;;;;;7.75;4.70;;;12.60;99.90;;;;;;4881765;29;20644;-60
2023/06/02 04:13:00;;;;;;;10.15;5.03;;;12.60;99.90;;;;;;4881909;29;20217;-59
2023/06/02 04:15:25;;;;;;;9.82;4.90;;;12.60;99.90;;;;;;4881894;29;20208;-59
2023/06/02 04:17:51;;;;;;;14.27;4.57;;;12.70;99.90;;;;;;4881834;29;20233;-59
2023/06/02 04:20:17;;;;;;;10.90;4.55;;;12.70;99.90;;;;;;4881635;29;20709;-59
2023/06/02 04:22:43;;;;;;;9.85;4.70;;;12.50;99.90;;;;;;4881604;29;20185;-59
2023/06/02 04:25:08;;;;;;;10.57;4.70;;;12.50;99.90;;;;;;4881441;29;20182;-58
2023/06/02 04:27:34;;;;;;;9.95;4.55;;;12.60;99.90;;;;;;4881699;29;20640;-59
2023/06/02 04:30:01;;;;;;;9.88;4.10;;;12.40;99.90;;;;;;4881584;29;20188;-59
2023/06/02 04:32:27;;;;;;;11.32;4.45;;;12.50;99.90;;;;;;4881430;29;20205;-59
2023/06/02 04:34:53;;;;;;;10.35;4.80;;;12.60;99.90;;;;;;4881461;29;20177;-59
2023/06/02 04:37:18;;;;;;;7.05;3.70;;;12.50;99.90;;;;;;4881324;29;20264;-59
2023/06/02 04:39:47;;;;;;;10.82;4.82;;;12.50;99.90;;;;;;4881211;29;20297;-59
2023/06/02 04:42:21;;;;;;;12.68;4.45;;;12.50;99.90;;;;;;4881356;29;20216;-59
2023/06/02 04:44:48;;;;;;;9.73;3.95;;;12.40;99.90;;;;;;4881508;29;20241;-59
2023/06/02 04:47:14;;;;;;;9.40;3.88;;;12.40;99.90;;;;;;4881275;29;20229;-58
2023/06/02 04:49:40;;;;;;;8.45;4.00;;;12.30;99.90;;;;;;4878703;29;20186;-59
2023/06/02 04:52:09;;;;;;;8.63;3.78;;;12.20;99.90;;;;;;4880807;29;20232;-58
2023/06/02 04:54:35;;;;;;;6.38;3.60;;;12.20;99.90;;;;;;4880966;29;20258;-59
2023/06/02 04:57:08;;;;;;;11.57;3.80;;;12.20;99.90;;;;;;4880915;29;20186;-59
2023/06/02 04:59:34;;;;;;;10.77;4.10;;;12.10;99.90;;;;;;4880397;29;20651;-59
2023/06/02 05:02:00;;;;;;;12.80;3.85;;;12.20;99.90;;;;;;4880941;29;20191;-59
2023/06/02 05:04:26;;;;;;;10.95;3.78;;;12.10;99.90;;;;;;4880620;29;20240;-58
2023/06/02 05:06:52;;;;;;;7.93;4.07;;;12.10;99.90;;;;;;4880697;29;20208;-58
2023/06/02 05:09:18;;;;;;;10.30;5.03;;;12.10;99.90;;;;;;4880974;29;20217;-58
2023/06/02 05:11:43;;;;;;;11.07;4.25;;;12.20;99.90;;;;;;4880727;29;20213;-58
2023/06/02 05:14:09;;;;;;;6.45;3.88;;;12.10;99.90;;;;;;4879675;29;20682;-58
2023/06/02 05:16:36;;;;;;;17.35;4.95;;;12.10;99.90;;;;;;4873422;29;20628;-58
2023/06/02 05:19:03;;;;;;;9.02;4.53;;;12.10;99.90;;;;;;4880203;29;20181;-58
2023/06/02 05:21:30;;;;;;;13.00;4.78;;;12.20;99.90;;;;;;4880412;29;20905;-58
2023/06/02 05:23:56;;;;;;;13.18;5.05;;;12.10;99.90;;;;;;4880434;29;20186;-58
2023/06/02 05:26:21;;;;;;;11.88;5.13;;;12.20;99.90;;;;;;4880302;29;20261;-58
2023/06/02 05:28:50;;;;;;;10.55;4.57;;;12.20;99.90;;;;;;4880350;29;20548;-58
2023/06/02 05:31:16;;;;;;;9.30;4.15;;;12.10;99.90;;;;;;4880018;29;20209;-58
2023/06/02 05:33:41;;;;;;;11.88;4.88;;;12.20;99.90;;;;;;4880146;29;20687;-58
2023/06/02 05:36:07;;;;;;;9.25;4.90;;;12.20;99.90;;;;;;4879956;29;20185;-58
2023/06/02 05:38:33;;;;;;;10.45;4.57;;;12.20;99.90;;;;;;4880202;29;20544;-58
2023/06/02 05:40:58;;;;;;;8.38;4.07;;;12.20;99.90;;;;;;4880304;29;20221;-58
2023/06/02 05:43:24;;;;;;;7.05;4.00;;;12.10;99.90;;;;;;4880268;29;20178;-59
2023/06/02 05:45:50;;;;;;;8.52;4.63;;;12.10;99.90;;;;;;4877717;29;20277;-58
2023/06/02 05:48:15;;;;;;;8.10;3.90;;;12.10;99.90;;;;;;4890438;29;20611;-58
2023/06/02 05:50:41;;;;;;;10.05;4.57;;;12.10;99.90;;;;;;4898290;29;20643;-58
2023/06/02 05:53:07;;;;;;;8.60;4.85;;;12.10;99.90;;;;;;4898000;29;20220;-59
2023/06/02 05:55:33;;;;;;;8.85;4.97;;;12.00;99.90;;;;;;4898728;29;20248;-58
2023/06/02 05:57:59;;;;;;;8.07;4.78;;;12.00;99.90;;;;;;4898606;29;20181;-58
2023/06/02 06:00:25;;;;;;;7.18;4.53;;;12.10;99.90;;;;;;4898116;29;20662;-58
2023/06/02 06:02:52;;;;;;;7.60;4.50;;;12.10;99.90;;;;;;4897924;29;20188;-58
2023/06/02 06:05:17;;;;;;;6.78;3.38;;;12.10;99.90;;;;;;4898269;29;20761;-58
2023/06/02 06:07:43;;;;;;;7.85;4.15;;;12.10;99.90;;;;;;4898648;29;20255;-58
2023/06/02 06:10:09;;;;;;;10.50;3.75;;;12.20;99.90;;;;;;4898557;29;20256;-58
2023/06/02 06:12:35;;;;;;;6.22;3.10;;;12.10;99.90;;;;;;4898412;29;20710;-58
2023/06/02 06:15:01;;;;;;;6.57;3.25;;;12.10;99.90;;;;;;4898418;29;20184;-58
2023/06/02 06:17:26;;;;;;;7.15;3.35;;;12.20;99.90;;;;;;4897568;29;20180;-58
2023/06/02 06:19:52;;;;;;;7.57;3.80;;;12.10;99.90;;;;;;4898275;29;20187;-58
2023/06/02 06:22:18;;;;;;;7.88;3.90;;;12.20;99.90;;;;;;4898511;29;20184;-58
2023/06/02 06:24:43;;;;;;;6.22;3.47;;;12.10;99.90;;;;;;4898232;29;20630;-58
2023/06/02 06:27:09;;;;;;;5.60;3.38;;;12.20;99.90;;;;;;4880644;29;20195;-58
2023/06/02 06:29:35;;;;;;;9.65;3.90;;;12.30;99.90;;;;;;4879613;29;20181;-58
2023/06/02 06:32:00;;;;;;;8.00;3.90;;;12.30;99.90;;;;;;4879369;29;20217;-58
2023/06/02 06:34:27;;;;;;;8.15;3.47;;;12.40;99.90;;;;;;4879438;29;20214;-59
2023/06/02 06:36:53;;;;;;;5.95;3.45;;;12.40;99.90;;;;;;4879585;29;20229;-58
2023/06/02 06:39:18;;;;;;;6.05;4.13;;;12.40;99.90;;;;;;4879551;29;20185;-58
2023/06/02 06:41:44;;;;;;;8.38;3.90;;;12.40;99.90;;;;;;4879613;29;20182;-58
2023/06/02 06:44:10;;;;;;;7.25;3.80;;;12.50;99.90;;;;;;4879404;29;20587;-58
2023/06/02 06:46:36;;;;;;;7.75;3.33;;;12.60;99.90;;;;;;4879357;29;20182;-58
2023/06/02 06:49:01;;;;;;;9.15;3.63;;;12.50;99.90;;;;;;4894368;29;20328;-58
2023/06/02 06:51:27;;;;;;;6.97;3.53;;;12.50;99.90;;;;;;4898381;29;20196;-58
2023/06/02 06:53:53;;;;;;;6.90;3.45;;;12.50;99.90;;;;;;4898094;29;20195;-58
2023/06/02 06:56:19;;;;;;;8.52;4.45;;;12.60;99.90;;;;;;4898088;29;20176;-58
2023/06/02 06:58:44;;;;;;;8.30;4.25;;;12.70;99.90;;;;;;4898031;29;20204;-58
2023/06/02 07:01:10;;;;;;;8.57;4.20;;;12.80;99.90;;;;;;4897581;29;20212;-58
2023/06/02 07:03:36;;;;;;;8.63;4.10;;;12.60;99.90;;;;;;4897003;29;20232;-58
2023/06/02 07:06:01;;;;;;;6.65;4.55;;;12.60;99.90;;;;;;4898227;29;20570;-58
2023/06/02 07:08:28;;;;;;;5.40;3.58;;;12.60;99.90;;;;;;4897993;29;20184;-58
2023/06/02 07:10:54;;;;;;;6.47;3.47;;;12.50;99.90;;;;;;4897935;29;20188;-59
2023/06/02 07:13:19;;;;;;;8.27;3.80;;;12.50;99.90;;;;;;4897733;29;20243;-58
2023/06/02 07:15:45;;;;;;;7.00;3.58;;;12.70;99.90;;;;;;4897810;29;20184;-58
2023/06/02 07:18:11;;;;;;;6.10;3.33;;;12.60;99.90;;;;;;4896994;29;20189;-58
2023/06/02 07:20:37;;;;;;;9.07;3.83;;;12.70;99.90;;;;;;4898244;29;20587;-58
2023/06/02 07:23:03;;;;;;;6.22;3.30;;;12.70;99.90;;;;;;4897983;29;20185;-58
2023/06/02 07:25:29;;;;;;;7.72;3.47;;;12.60;99.90;;;;;;4897790;29;20241;-58
2023/06/02 07:27:54;;;;;;;7.25;3.60;;;12.50;99.90;;;;;;4897739;29;20181;-58
2023/06/02 07:30:20;;;;;;;6.38;3.40;;;12.30;99.90;;;;;;4897781;29;20208;-58
2023/06/02 07:32:46;;;;;;;6.75;3.97;;;12.30;99.90;;;;;;4897564;29;20264;-58
2023/06/02 07:35:12;;;;;;;8.70;3.70;;;12.50;99.90;;;;;;4897849;29;20325;-58
2023/06/02 07:37:37;;;;;;;6.93;3.63;;;12.50;99.90;;;;;;4897747;29;20181;-59
2023/06/02 07:40:04;;;;;;;7.10;3.47;;;12.60;99.90;;;;;;4900617;29;20235;-59
2023/06/02 07:42:29;;;;;;;6.22;3.50;;;12.60;99.90;;;;;;4901313;29;20225;-58
2023/06/02 07:44:55;;;;;;;6.97;3.30;;;12.60;99.90;;;;;;4901046;29;20566;-58
2023/06/02 07:47:22;;;;;;;5.63;3.05;;;12.50;99.90;;;;;;4900122;29;20622;-58
2023/06/02 07:49:47;;;;;;;5.40;3.50;;;12.50;99.90;;;;;;4901053;29;20177;-58
2023/06/02 07:52:13;;;;;;;5.28;3.13;;;12.60;99.90;;;;;;4900912;29;20205;-59
2023/06/02 07:54:40;;;;;;;9.00;3.55;;;12.70;99.90;;;;;;4900996;29;20834;-58
2023/06/02 07:57:06;;;;;;;6.60;3.50;;;12.70;99.90;;;;;;4900908;29;20726;-58
2023/06/02 07:59:31;;;;;;;18.25;6.65;;;12.80;99.90;;;;;;4900782;29;20181;-59
2023/06/02 08:01:57;;;;;;;7.40;3.80;;;12.90;99.90;;;;;;4900293;29;20193;-58
2023/06/02 08:04:25;;;;;;;9.98;3.63;;;13.00;99.90;;;;;;4900166;29;20228;-59
2023/06/02 08:06:54;;;;;;;7.75;3.95;;;13.00;99.90;;;;;;4900733;29;20229;-59
2023/06/02 08:09:20;;;;;;;8.43;3.70;;;12.90;99.90;;;;;;4900658;29;20224;-58
2023/06/02 08:11:48;;;;;;;7.10;3.75;;;12.80;99.90;;;;;;4900502;29;20717;-58
2023/06/02 08:14:14;;;;;;;8.13;4.40;;;12.80;99.90;;;;;;4900444;29;20263;-58
2023/06/02 08:16:41;;;;;;;9.77;6.63;;;12.80;99.90;;;;;;4900402;29;20591;-58
2023/06/02 08:19:07;;;;;;;7.00;4.30;;;12.80;99.90;;;;;;4899957;29;20189;-58
2023/06/02 08:21:33;;;;;;;9.90;5.15;;;12.80;99.90;;;;;;4900786;29;20701;-58
2023/06/02 08:24:00;;;;;;;9.27;4.80;;;12.70;99.90;;;;;;4900451;29;20180;-58
2023/06/02 08:26:26;;;;;;;13.57;9.32;;;12.70;99.90;;;;;;4900234;29;20180;-58
2023/06/02 08:28:53;;;;;;;8.75;5.47;;;12.80;99.90;;;;;;4900238;29;20602;-58
2023/06/02 08:31:20;;;;;;;8.60;4.28;;;12.80;99.90;;;;;;4900044;29;20642;-58
2023/06/02 08:33:47;;;;;;;9.25;4.88;;;12.90;99.90;;;;;;4900170;29;20216;-58
2023/06/02 08:36:17;;;;;;;9.90;4.72;;;13.00;99.90;;;;;;4900161;29;20181;-58
2023/06/02 08:38:44;;;;;;;6.78;3.95;;;13.00;99.90;;;;;;4900135;29;20208;-58
2023/06/02 08:41:13;;;;;;;9.40;4.35;;;13.10;99.90;;;;;;4900147;29;20607;-58
2023/06/02 08:43:40;;;;;;;8.43;4.18;;;13.20;99.90;;;;;;4899671;29;20538;-58
2023/06/02 08:46:12;;;;;;;6.90;3.88;;;13.30;99.90;;;;;;4899943;29;20235;-58
2023/06/02 08:48:39;;;;;;;6.35;3.40;;;13.30;99.90;;;;;;4899383;29;20177;-58
2023/06/02 08:51:10;;;;;;;7.50;3.50;;;13.40;99.90;;;;;;4898921;29;20204;-58
2023/06/02 08:53:36;;;;;;;5.85;3.35;;;13.30;99.90;;;;;;4899919;29;20646;-59
2023/06/02 08:56:04;;;;;;;7.85;3.90;;;13.50;99.90;;;;;;4899710;29;20184;-58
2023/06/02 08:58:30;;;;;;;9.68;5.78;;;13.50;99.90;;;;;;4899309;29;20595;-58
2023/06/02 09:00:56;;;;;;;10.43;5.10;;;13.30;99.90;;;;;;4899380;29;20187;-58
2023/06/02 09:03:22;;;;;;;11.07;5.38;;;13.30;99.90;;;;;;4899354;29;20256;-58
2023/06/02 09:05:47;;;;;;;8.20;5.13;;;13.50;99.90;;;;;;4898684;29;20194;-58
2023/06/02 09:08:17;;;;;;;8.68;5.20;;;13.30;99.90;;;;;;4899534;29;20215;-58
2023/06/02 09:10:44;;;;;;;11.07;4.57;;;13.20;99.90;;;;;;4882556;29;20653;-59
2023/06/02 09:13:27;;;;;;;11.43;4.45;;;13.30;99.90;;;;;;4899370;29;20327;-58
2023/06/02 09:15:58;;;;;;;6.65;4.45;;;13.30;99.90;;;;;;4899180;29;20169;-59
2023/06/02 09:18:24;;;;;;;9.18;4.93;;;13.30;99.90;;;;;;4898600;29;20239;-58
2023/06/02 09:20:50;;;;;;;9.43;4.95;;;13.30;99.90;;;;;;4899281;29;20191;-58
2023/06/02 09:23:16;;;;;;;11.43;4.20;;;13.40;99.90;;;;;;4899089;29;20665;-59
2023/06/02 09:25:43;;;;;;;9.35;4.47;;;13.40;99.90;;;;;;4899377;29;20181;-58
2023/06/02 09:28:09;;;;;;;8.77;4.40;;;13.60;99.90;;;;;;4899016;29;20177;-59
2023/06/02 09:30:35;;;;;;;8.48;3.97;;;13.80;99.90;;;;;;4898782;29;20543;-59
2023/06/02 09:33:07;;;;;;;8.05;4.15;;;13.90;99.90;;;;;;4898605;29;20571;-58
2023/06/02 09:35:41;;;;;;;7.78;4.30;;;13.90;99.90;;;;;;4897006;29;20173;-58
2023/06/02 09:38:10;;;;;;;9.13;3.75;;;14.10;99.90;;;;;;4898677;29;20236;-58
2023/06/02 09:40:37;;;;;;;10.15;3.63;;;14.10;99.90;;;;;;4899026;29;20173;-58
2023/06/02 09:43:09;;;;;;;7.07;3.80;;;14.20;99.90;;;;;;4898761;29;20252;-58
2023/06/02 09:45:57;;;;;;;7.03;3.70;;;14.30;99.90;;;;;;4898454;29;20635;-58
2023/06/02 09:48:23;;;;;;;10.93;4.13;;;14.20;99.90;;;;;;4897907;29;20188;-58
2023/06/02 09:50:49;;;;;;;9.13;4.55;;;14.10;99.90;;;;;;4898950;29;20188;-58
2023/06/02 09:53:17;;;;;;;10.85;4.32;;;14.20;99.90;;;;;;4898767;29;20216;-59
2023/06/02 09:55:44;;;;;;;9.75;4.45;;;14.30;99.90;;;;;;4898553;29;20267;-58
2023/06/02 09:58:10;;;;;;;9.80;4.47;;;14.40;99.90;;;;;;4898636;29;20547;-58
2023/06/02 10:00:35;;;;;;;9.90;4.53;;;14.40;99.90;;;;;;4898233;29;20181;-58
2023/06/02 10:03:02;;;;;;;7.63;3.75;;;14.40;99.90;;;;;;4898079;29;20223;-58
2023/06/02 10:05:29;;;;;;;9.30;3.83;;;14.30;99.90;;;;;;4893332;29;20225;-58
2023/06/02 10:08:26;;;;;;;9.23;4.43;;;14.30;99.90;;;;;;4879727;29;20178;-58
2023/06/02 10:11:10;;;;;;;9.05;4.47;;;14.20;99.90;;;;;;4879213;29;20169;-58
2023/06/02 10:14:14;;;;;;;8.93;4.40;;;14.40;99.90;;;;;;4879612;29;20555;-58
2023/06/02 10:17:01;;;;;;;9.73;4.85;;;14.60;99.90;;;;;;4879427;29;20169;-58
2023/06/02 10:19:30;;;;;;;8.35;4.90;;;14.50;99.90;;;;;;4879698;29;20189;-58
2023/06/02 10:21:55;;;;;;;9.65;4.30;;;14.50;99.90;;;;;;4879073;29;20658;-58
2023/06/02 10:24:53;;;;;;;8.07;4.50;;;14.70;99.90;;;;;;4879793;29;20181;-58
2023/06/02 10:27:40;;;;;;;10.05;4.30;;;14.80;99.90;;;;;;4866398;29;20193;-59
2023/06/02 10:30:07;;;;;;;9.23;4.13;;;14.90;99.90;;;;;;4879803;29;20191;-58
2023/06/02 10:32:48;;;;;;;7.95;5.13;;;15.10;99.90;;;;;;4872073;29;20756;-58
2023/06/02 10:35:15;;;;;;;8.40;4.57;;;15.10;99.90;;;;;;4879566;29;20224;-58
2023/06/02 10:37:41;;;;;;;8.77;4.72;;;15.20;99.90;;;;;;4879556;29;20180;-59
2023/06/02 10:40:10;;;;;;;10.77;6.20;;;15.20;99.90;;;;;;4879467;29;20185;-58
2023/06/02 10:42:37;;;;;;;9.63;4.78;;;15.00;99.90;;;;;;4879326;29;20241;-58
2023/06/02 10:45:20;;;;;;;11.88;6.47;;;15.20;99.90;;;;;;4879643;29;20201;-58
2023/06/02 10:47:46;;;;;;;11.85;6.50;;;15.30;99.90;;;;;;4879472;29;20666;-58
2023/06/02 10:50:21;;;;;;;9.65;5.18;;;15.40;99.90;;;;;;4879393;29;20178;-58
2023/06/02 10:52:59;;;;;;;9.02;5.95;;;15.20;99.90;;;;;;4879314;29;20268;-58
2023/06/02 10:55:32;;;;;;;12.27;5.38;;;15.50;99.90;;;;;;4879496;29;20256;-59
2023/06/02 10:58:06;;;;;;;11.02;4.82;;;15.70;99.90;;;;;;4879408;29;20185;-58
2023/06/02 11:00:43;;;;;;;9.73;4.70;;;15.70;99.90;;;;;;4879421;29;20209;-58
2023/06/02 11:03:17;;;;;;;9.07;4.07;;;16.20;99.90;;;;;;4879203;29;20192;-58
2023/06/02 11:05:49;;;;;;;11.30;4.53;;;16.40;99.90;;;;;;4879169;29;20225;-59
2023/06/02 11:08:18;;;;;;;10.55;5.40;;;16.70;99.90;;;;;;4879327;29;20517;-58
2023/06/02 11:10:47;;;;;;;9.38;4.47;;;16.80;99.90;;;;;;4879301;29;20181;-58
2023/06/02 11:13:14;;;;;;;11.23;5.38;;;16.80;99.90;;;;;;4879455;29;20567;-58
2023/06/02 11:15:54;;;;;;;8.32;4.60;;;17.00;99.90;;;;;;4882942;29;20174;-58
2023/06/02 11:18:23;;;;;;;11.57;5.60;;;17.30;99.90;;;;;;4882996;29;20173;-58
2023/06/02 11:20:50;;;;;;;9.30;4.85;;;17.10;99.90;;;;;;4882842;29;20189;-58
2023/06/02 11:23:20;;;;;;;10.60;4.53;;;17.00;99.90;;;;;;4882721;29;20181;-58
2023/06/02 11:26:02;;;;;;;7.18;4.47;;;16.90;99.60;;;;;;4882704;29;20177;-58
2023/06/02 11:28:28;;;;;;;12.70;4.60;;;16.90;99.90;;;;;;4882589;29;20608;-58
2023/06/02 11:31:05;;;;;;;11.75;5.57;;;17.20;99.90;;;;;;4882849;29;20177;-59
2023/06/02 11:33:33;;;;;;;11.10;4.75;;;17.40;99.90;;;;;;4882477;29;20686;-59
2023/06/02 11:35:59;;;;;;;8.00;4.18;;;17.70;99.80;;;;;;4882605;29;20189;-58
2023/06/02 11:38:32;;;;;;;8.70;4.82;;;17.80;99.60;;;;;;4865804;29;20181;-58
2023/06/02 11:41:14;;;;;;;13.38;5.15;;;17.60;98.60;;;;;;4866826;29;20190;-59
2023/06/02 11:43:42;;;;;;;15.52;5.13;;;17.30;99.80;;;;;;4882447;29;20256;-58
2023/06/02 11:46:09;;;;;;;9.45;4.72;;;17.30;99.60;;;;;;4882349;29;20209;-59
2023/06/02 11:48:38;;;;;;;9.82;4.65;;;17.50;99.90;;;;;;4882309;29;20209;-58
2023/06/02 11:51:11;;;;;;;11.23;5.20;;;17.70;99.80;;;;;;4882159;29;20209;-58
2023/06/02 11:53:38;;;;;;;8.38;4.90;;;17.90;99.80;;;;;;4882087;29;20682;-58
2023/06/02 11:56:07;;;;;;;12.60;4.90;;;18.00;99.60;;;;;;4882231;29;20181;-58
2023/06/02 11:58:43;;;;;;;8.98;4.38;;;18.00;98.50;;;;;;4874606;29;20224;-59
2023/06/02 12:01:14;;;;;;;10.93;4.55;;;18.10;97.90;;;;;;4865500;29;20627;-59
2023/06/02 12:04:04;;;;;;;9.35;4.32;;;18.10;98.50;;;;;;4882049;29;20256;-58
2023/06/02 12:06:30;;;;;;;9.95;4.32;;;18.20;98.40;;;;;;4882136;29;20236;-59
2023/06/02 12:08:56;;;;;;;12.32;4.68;;;18.40;98.20;;;;;;4882165;29;20186;-58
2023/06/02 12:11:23;;;;;;;9.13;4.40;;;18.10;97.80;;;;;;4882043;29;20174;-58
2023/06/02 12:14:03;;;;;;;10.90;4.32;;;18.10;97.50;;;;;;4881639;29;20700;-58
2023/06/02 12:16:29;;;;;;;7.43;4.18;;;18.30;98.40;;;;;;4881698;29;20200;-58
2023/06/02 12:19:12;;;;;;;9.23;4.28;;;18.50;98.10;;;;;;4881954;29;20185;-58
2023/06/02 12:21:39;;;;;;;10.15;4.28;;;18.00;97.10;;;;;;4882065;29;20182;-57
2023/06/02 12:24:06;;;;;;;9.88;4.43;;;18.10;98.10;;;;;;4881547;29;20570;-58
2023/06/02 12:26:42;;;;;;;8.25;4.18;;;18.10;98.20;;;;;;4881588;29;20249;-57
2023/06/02 12:29:13;;;;;;;9.38;4.47;;;18.00;98.20;;;;;;4881643;29;20673;-58
2023/06/02 12:31:39;;;;;;;7.80;4.45;;;17.80;98.00;;;;;;4881556;29;20180;-57
2023/06/02 12:34:07;;;;;;;10.63;4.88;;;17.90;98.70;;;;;;4881505;29;20185;-58
2023/06/02 12:36:35;;;;;;;11.13;4.57;;;18.10;99.30;;;;;;4881462;29;20280;-57
2023/06/02 12:39:03;;;;;;;9.15;4.30;;;18.20;99.00;;;;;;4881411;29;20598;-58
2023/06/02 12:41:28;;;;;;;8.55;4.50;;;18.20;97.50;;;;;;4881177;29;20185;-58
2023/06/02 12:43:54;;;;;;;9.65;4.20;;;18.40;98.40;;;;;;4881560;29;20177;-57
2023/06/02 12:46:21;;;;;;;8.40;4.10;;;18.50;99.00;;;;;;4881403;29;20659;-58
2023/06/02 12:48:47;;;;;;;8.38;4.10;;;18.50;98.10;;;;;;4881325;29;20181;-58